sensor_id;sensor_type;location;lat;lon;timestamp;temperature;humidity
11132;DHT22;5620;53.570;9.718;2022-09-09T00:20:58;16.30;1.00
11132;DHT22;5620;53.570;9.718;2022-09-09T00:23:35;16.30;1.00
11132;DHT22;5620;53.570;9.718;2022-09-09T00:31:39;16.40;1.00
11132;DHT22;5620;53.570;9.718;2022-09-09T00:34:21;16.40;1.00
11132;DHT22;5620;53.570;9.718;2022-09-09T00:36:50;16.40;17.40
11132;DHT22;5620;53.570;9.718;2022-09-09T00:39:56;16.40;1.00
11132;DHT22;5620;53.570;9.718;2022-09-09T00:42:42;16.40;1.00
11132;DHT22;5620;53.570;9.718;2022-09-09T00:48:40;16.40;1.00
11132;DHT22;5620;53.570;9.718;2022-09-09T00:51:17;16.40;1.00
11132;DHT22;5620;53.570;9.718;2022-09-09T00:59:58;16.30;1.00
11132;DHT22;5620;53.570;9.718;2022-09-09T01:02:57;16.20;1.00
11132;DHT22;5620;53.570;9.718;2022-09-09T01:11:23;15.80;1.00
11132;DHT22;5620;53.570;9.718;2022-09-09T01:13:56;15.70;45.00
11132;DHT22;5620;53.570;9.718;2022-09-09T01:16:25;15.70;66.50
11132;DHT22;5620;53.570;9.718;2022-09-09T01:18:56;15.60;93.50
11132;DHT22;5620;53.570;9.718;2022-09-09T01:21:54;15.60;99.90
11132;DHT22;5620;53.570;9.718;2022-09-09T01:27:15;15.50;99.90
11132;DHT22;5620;53.570;9.718;2022-09-09T01:29:45;15.50;99.90
11132;DHT22;5620;53.570;9.718;2022-09-09T01:35:41;15.40;99.90
11132;DHT22;5620;53.570;9.718;2022-09-09T01:38:10;15.40;99.90
11132;DHT22;5620;53.570;9.718;2022-09-09T01:40:48;15.30;99.90
11132;DHT22;5620;53.570;9.718;2022-09-09T01:43:15;15.20;99.90
11132;DHT22;5620;53.570;9.718;2022-09-09T01:45:43;15.20;99.90
11132;DHT22;5620;53.570;9.718;2022-09-09T01:48:09;15.10;99.90
11132;DHT22;5620;53.570;9.718;2022-09-09T01:50:37;15.10;99.90
11132;DHT22;5620;53.570;9.718;2022-09-09T01:53:05;15.10;99.90
11132;DHT22;5620;53.570;9.718;2022-09-09T01:55:37;15.00;99.90
11132;DHT22;5620;53.570;9.718;2022-09-09T01:58:28;15.00;99.90
11132;DHT22;5620;53.570;9.718;2022-09-09T02:04:09;15.00;99.90
11132;DHT22;5620;53.570;9.718;2022-09-09T02:06:40;14.90;99.90
11132;DHT22;5620;53.570;9.718;2022-09-09T02:09:13;14.90;99.90
11132;DHT22;5620;53.570;9.718;2022-09-09T02:11:45;14.90;99.90
11132;DHT22;5620;53.570;9.718;2022-09-09T02:14:31;14.90;1.00
11132;DHT22;5620;53.570;9.718;2022-09-09T02:17:10;14.80;1.00
11132;DHT22;5620;53.570;9.718;2022-09-09T02:19:44;14.80;1.00
11132;DHT22;5620;53.570;9.718;2022-09-09T02:22:26;14.80;1.00
11132;DHT22;5620;53.570;9.718;2022-09-09T02:24:56;14.80;1.00
11132;DHT22;5620;53.570;9.718;2022-09-09T02:27:25;14.80;1.00
11132;DHT22;5620;53.570;9.718;2022-09-09T02:29:52;14.70;1.00
11132;DHT22;5620;53.570;9.718;2022-09-09T02:32:22;14.70;1.00
11132;DHT22;5620;53.570;9.718;2022-09-09T02:34:58;14.70;1.00
11132;DHT22;5620;53.570;9.718;2022-09-09T02:37:31;14.70;1.00
11132;DHT22;5620;53.570;9.718;2022-09-09T02:39:59;14.70;1.00
11132;DHT22;5620;53.570;9.718;2022-09-09T02:42:26;14.70;1.00
11132;DHT22;5620;53.570;9.718;2022-09-09T02:44:51;14.60;1.00
11132;DHT22;5620;53.570;9.718;2022-09-09T02:47:35;14.60;1.00
11132;DHT22;5620;53.570;9.718;2022-09-09T02:53:20;14.60;1.00
11132;DHT22;5620;53.570;9.718;2022-09-09T02:56:04;14.50;1.00
11132;DHT22;5620;53.570;9.718;2022-09-09T02:58:31;14.50;1.00
11132;DHT22;5620;53.570;9.718;2022-09-09T03:00:58;14.50;1.00
11132;DHT22;5620;53.570;9.718;2022-09-09T03:03:24;14.50;1.00
11132;DHT22;5620;53.570;9.718;2022-09-09T03:05:51;14.60;1.00
11132;DHT22;5620;53.570;9.718;2022-09-09T03:08:17;14.50;1.00
11132;DHT22;5620;53.570;9.718;2022-09-09T03:10:45;14.50;1.00
11132;DHT22;5620;53.570;9.718;2022-09-09T03:13:10;14.50;1.00
11132;DHT22;5620;53.570;9.718;2022-09-09T03:15:36;14.50;1.00
11132;DHT22;5620;53.570;9.718;2022-09-09T03:18:03;14.50;1.00
11132;DHT22;5620;53.570;9.718;2022-09-09T03:20:30;14.40;1.00
11132;DHT22;5620;53.570;9.718;2022-09-09T03:22:56;14.40;1.00
11132;DHT22;5620;53.570;9.718;2022-09-09T03:25:23;14.40;1.00
11132;DHT22;5620;53.570;9.718;2022-09-09T03:27:50;14.40;1.00
11132;DHT22;5620;53.570;9.718;2022-09-09T03:30:16;14.30;1.00
11132;DHT22;5620;53.570;9.718;2022-09-09T03:32:44;14.30;1.00
11132;DHT22;5620;53.570;9.718;2022-09-09T03:35:12;14.30;1.00
11132;DHT22;5620;53.570;9.718;2022-09-09T03:37:39;14.20;1.00
11132;DHT22;5620;53.570;9.718;2022-09-09T03:40:06;14.20;1.00
11132;DHT22;5620;53.570;9.718;2022-09-09T03:42:33;14.20;1.00
11132;DHT22;5620;53.570;9.718;2022-09-09T03:45:00;14.20;1.00
11132;DHT22;5620;53.570;9.718;2022-09-09T03:47:26;14.20;1.00
11132;DHT22;5620;53.570;9.718;2022-09-09T03:49:54;14.20;1.00
11132;DHT22;5620;53.570;9.718;2022-09-09T03:52:22;14.20;1.00
11132;DHT22;5620;53.570;9.718;2022-09-09T03:54:49;14.20;1.00
11132;DHT22;5620;53.570;9.718;2022-09-09T03:57:17;14.20;1.00
11132;DHT22;5620;53.570;9.718;2022-09-09T03:59:44;14.20;1.00
11132;DHT22;5620;53.570;9.718;2022-09-09T04:02:11;14.20;1.00
11132;DHT22;5620;53.570;9.718;2022-09-09T04:04:38;14.20;1.00
11132;DHT22;5620;53.570;9.718;2022-09-09T04:07:06;14.20;1.00
11132;DHT22;5620;53.570;9.718;2022-09-09T04:09:35;14.10;1.00
11132;DHT22;5620;53.570;9.718;2022-09-09T04:12:02;14.10;1.00
11132;DHT22;5620;53.570;9.718;2022-09-09T04:14:29;14.10;1.00
11132;DHT22;5620;53.570;9.718;2022-09-09T04:16:55;14.30;1.00
11132;DHT22;5620;53.570;9.718;2022-09-09T04:19:24;14.10;1.00
11132;DHT22;5620;53.570;9.718;2022-09-09T04:21:52;14.10;1.00
11132;DHT22;5620;53.570;9.718;2022-09-09T04:24:19;14.10;1.00
11132;DHT22;5620;53.570;9.718;2022-09-09T04:26:45;14.10;1.00
11132;DHT22;5620;53.570;9.718;2022-09-09T04:29:11;14.10;1.00
11132;DHT22;5620;53.570;9.718;2022-09-09T04:31:38;14.10;1.00
11132;DHT22;5620;53.570;9.718;2022-09-09T04:34:04;14.20;1.00
11132;DHT22;5620;53.570;9.718;2022-09-09T04:36:34;14.20;1.00
11132;DHT22;5620;53.570;9.718;2022-09-09T04:39:01;14.20;1.00
11132;DHT22;5620;53.570;9.718;2022-09-09T04:41:28;14.30;1.00
11132;DHT22;5620;53.570;9.718;2022-09-09T04:43:56;14.30;1.00
11132;DHT22;5620;53.570;9.718;2022-09-09T04:46:24;14.40;1.00
11132;DHT22;5620;53.570;9.718;2022-09-09T04:48:51;14.40;1.00
11132;DHT22;5620;53.570;9.718;2022-09-09T04:51:18;14.40;1.00
11132;DHT22;5620;53.570;9.718;2022-09-09T04:53:44;14.40;1.00
11132;DHT22;5620;53.570;9.718;2022-09-09T04:56:13;14.40;1.00
11132;DHT22;5620;53.570;9.718;2022-09-09T04:58:39;14.40;1.00
11132;DHT22;5620;53.570;9.718;2022-09-09T05:01:19;14.30;1.00
11132;DHT22;5620;53.570;9.718;2022-09-09T05:03:47;14.30;1.00
11132;DHT22;5620;53.570;9.718;2022-09-09T05:06:17;14.30;1.00
11132;DHT22;5620;53.570;9.718;2022-09-09T05:08:44;14.30;1.00
11132;DHT22;5620;53.570;9.718;2022-09-09T05:11:24;14.30;1.00
11132;DHT22;5620;53.570;9.718;2022-09-09T05:13:50;14.30;1.00
11132;DHT22;5620;53.570;9.718;2022-09-09T05:16:17;14.30;1.00
11132;DHT22;5620;53.570;9.718;2022-09-09T05:18:43;14.30;1.00
11132;DHT22;5620;53.570;9.718;2022-09-09T05:21:14;14.40;1.00
11132;DHT22;5620;53.570;9.718;2022-09-09T05:23:41;14.40;1.00
11132;DHT22;5620;53.570;9.718;2022-09-09T05:26:15;14.50;1.00
11132;DHT22;5620;53.570;9.718;2022-09-09T05:28:41;14.50;1.00
11132;DHT22;5620;53.570;9.718;2022-09-09T05:31:10;14.60;1.00
11132;DHT22;5620;53.570;9.718;2022-09-09T05:33:36;14.70;1.00
11132;DHT22;5620;53.570;9.718;2022-09-09T05:36:07;14.80;1.00
11132;DHT22;5620;53.570;9.718;2022-09-09T05:38:44;15.00;1.00
11132;DHT22;5620;53.570;9.718;2022-09-09T05:41:12;15.10;1.00
11132;DHT22;5620;53.570;9.718;2022-09-09T05:43:40;15.30;1.00
11132;DHT22;5620;53.570;9.718;2022-09-09T05:46:18;15.40;1.00
11132;DHT22;5620;53.570;9.718;2022-09-09T05:48:46;15.60;1.00
11132;DHT22;5620;53.570;9.718;2022-09-09T05:51:25;15.80;1.00
11132;DHT22;5620;53.570;9.718;2022-09-09T05:53:52;15.90;1.00
11132;DHT22;5620;53.570;9.718;2022-09-09T05:56:36;16.00;1.00
11132;DHT22;5620;53.570;9.718;2022-09-09T05:59:04;16.10;99.90
11132;DHT22;5620;53.570;9.718;2022-09-09T06:01:34;16.10;99.90
11132;DHT22;5620;53.570;9.718;2022-09-09T06:04:03;16.20;99.90
11132;DHT22;5620;53.570;9.718;2022-09-09T06:06:35;16.20;99.90
11132;DHT22;5620;53.570;9.718;2022-09-09T06:09:02;16.30;99.90
11132;DHT22;5620;53.570;9.718;2022-09-09T06:11:31;16.30;99.90
11132;DHT22;5620;53.570;9.718;2022-09-09T06:14:01;16.30;99.90
11132;DHT22;5620;53.570;9.718;2022-09-09T06:16:29;16.40;99.90
11132;DHT22;5620;53.570;9.718;2022-09-09T06:18:56;16.30;99.90
11132;DHT22;5620;53.570;9.718;2022-09-09T06:21:32;16.40;63.70
11132;DHT22;5620;53.570;9.718;2022-09-09T06:24:00;16.40;1.00
11132;DHT22;5620;53.570;9.718;2022-09-09T06:26:34;16.40;1.00
11132;DHT22;5620;53.570;9.718;2022-09-09T06:29:04;16.50;1.00
11132;DHT22;5620;53.570;9.718;2022-09-09T06:31:31;16.50;1.00
11132;DHT22;5620;53.570;9.718;2022-09-09T06:34:08;16.60;1.00
11132;DHT22;5620;53.570;9.718;2022-09-09T06:36:38;16.70;1.00
11132;DHT22;5620;53.570;9.718;2022-09-09T06:39:06;16.80;99.90
11132;DHT22;5620;53.570;9.718;2022-09-09T06:41:33;16.90;99.90
11132;DHT22;5620;53.570;9.718;2022-09-09T06:44:01;17.00;74.00
11132;DHT22;5620;53.570;9.718;2022-09-09T06:46:30;16.90;1.00
11132;DHT22;5620;53.570;9.718;2022-09-09T06:48:57;16.90;1.00
11132;DHT22;5620;53.570;9.718;2022-09-09T06:51:35;16.90;1.00
11132;DHT22;5620;53.570;9.718;2022-09-09T06:54:04;17.00;1.00
11132;DHT22;5620;53.570;9.718;2022-09-09T06:56:52;17.10;1.00
11132;DHT22;5620;53.570;9.718;2022-09-09T06:59:18;17.20;99.90
11132;DHT22;5620;53.570;9.718;2022-09-09T07:01:47;17.30;1.00
11132;DHT22;5620;53.570;9.718;2022-09-09T07:04:15;17.40;1.00
11132;DHT22;5620;53.570;9.718;2022-09-09T07:06:44;17.50;99.90
11132;DHT22;5620;53.570;9.718;2022-09-09T07:09:14;17.80;99.90
11132;DHT22;5620;53.570;9.718;2022-09-09T07:11:47;18.10;1.00
11132;DHT22;5620;53.570;9.718;2022-09-09T07:14:15;18.20;99.90
11132;DHT22;5620;53.570;9.718;2022-09-09T07:16:44;18.40;1.00
11132;DHT22;5620;53.570;9.718;2022-09-09T07:19:12;18.50;74.50
11132;DHT22;5620;53.570;9.718;2022-09-09T07:21:38;18.70;99.90
11132;DHT22;5620;53.570;9.718;2022-09-09T07:24:05;18.80;1.00
11132;DHT22;5620;53.570;9.718;2022-09-09T07:26:30;18.90;1.00
11132;DHT22;5620;53.570;9.718;2022-09-09T07:28:57;19.00;99.90
11132;DHT22;5620;53.570;9.718;2022-09-09T07:31:38;19.10;99.90
11132;DHT22;5620;53.570;9.718;2022-09-09T07:34:14;19.30;99.90
11132;DHT22;5620;53.570;9.718;2022-09-09T07:36:42;19.40;1.00
11132;DHT22;5620;53.570;9.718;2022-09-09T07:39:11;19.60;1.00
11132;DHT22;5620;53.570;9.718;2022-09-09T07:41:55;19.80;99.90
11132;DHT22;5620;53.570;9.718;2022-09-09T07:44:24;19.80;72.70
11132;DHT22;5620;53.570;9.718;2022-09-09T07:46:52;19.90;1.00
11132;DHT22;5620;53.570;9.718;2022-09-09T07:49:20;20.00;1.00
11132;DHT22;5620;53.570;9.718;2022-09-09T07:51:47;20.30;1.00
11132;DHT22;5620;53.570;9.718;2022-09-09T07:54:17;20.50;99.90
11132;DHT22;5620;53.570;9.718;2022-09-09T07:56:53;20.70;1.00
11132;DHT22;5620;53.570;9.718;2022-09-09T07:59:19;21.00;99.90
11132;DHT22;5620;53.570;9.718;2022-09-09T08:01:48;20.90;1.00
11132;DHT22;5620;53.570;9.718;2022-09-09T08:04:17;20.80;99.90
11132;DHT22;5620;53.570;9.718;2022-09-09T08:06:53;21.00;99.90
11132;DHT22;5620;53.570;9.718;2022-09-09T08:09:22;21.30;99.90
11132;DHT22;5620;53.570;9.718;2022-09-09T08:11:48;21.30;1.00
11132;DHT22;5620;53.570;9.718;2022-09-09T08:14:16;21.30;1.00
11132;DHT22;5620;53.570;9.718;2022-09-09T08:16:46;21.50;1.00
11132;DHT22;5620;53.570;9.718;2022-09-09T08:19:13;21.60;99.90
11132;DHT22;5620;53.570;9.718;2022-09-09T08:21:41;21.60;99.90
11132;DHT22;5620;53.570;9.718;2022-09-09T08:24:08;21.70;99.90
11132;DHT22;5620;53.570;9.718;2022-09-09T08:26:36;21.60;62.20
11132;DHT22;5620;53.570;9.718;2022-09-09T08:29:05;21.40;1.00
11132;DHT22;5620;53.570;9.718;2022-09-09T08:31:45;21.10;1.00
11132;DHT22;5620;53.570;9.718;2022-09-09T08:34:22;20.90;1.00
11132;DHT22;5620;53.570;9.718;2022-09-09T08:36:55;20.90;16.80
11132;DHT22;5620;53.570;9.718;2022-09-09T08:39:22;20.90;21.60
11132;DHT22;5620;53.570;9.718;2022-09-09T08:45:10;21.10;1.00
11132;DHT22;5620;53.570;9.718;2022-09-09T08:48:03;21.20;1.00
11132;DHT22;5620;53.570;9.718;2022-09-09T08:50:38;21.50;1.00
11132;DHT22;5620;53.570;9.718;2022-09-09T08:53:28;21.70;1.00
11132;DHT22;5620;53.570;9.718;2022-09-09T08:55:57;21.70;1.00
11132;DHT22;5620;53.570;9.718;2022-09-09T08:58:33;21.70;1.00
11132;DHT22;5620;53.570;9.718;2022-09-09T09:12:44;22.70;1.00
11132;DHT22;5620;53.570;9.718;2022-09-09T09:15:36;22.70;99.90
11132;DHT22;5620;53.570;9.718;2022-09-09T09:18:04;22.70;99.90
11132;DHT22;5620;53.570;9.718;2022-09-09T09:23:26;22.40;99.90
11132;DHT22;5620;53.570;9.718;2022-09-09T09:26:02;22.10;99.90
11132;DHT22;5620;53.570;9.718;2022-09-09T09:28:33;21.90;99.90
11132;DHT22;5620;53.570;9.718;2022-09-09T09:31:12;21.70;99.90
11132;DHT22;5620;53.570;9.718;2022-09-09T09:36:46;21.70;99.90
11132;DHT22;5620;53.570;9.718;2022-09-09T09:39:30;22.00;99.90
11132;DHT22;5620;53.570;9.718;2022-09-09T09:41:57;22.10;99.90
11132;DHT22;5620;53.570;9.718;2022-09-09T09:44:30;21.90;99.90
11132;DHT22;5620;53.570;9.718;2022-09-09T09:50:19;22.00;99.90
11132;DHT22;5620;53.570;9.718;2022-09-09T09:53:02;22.10;99.90
11132;DHT22;5620;53.570;9.718;2022-09-09T09:55:35;22.40;99.90
11132;DHT22;5620;53.570;9.718;2022-09-09T09:58:04;22.70;99.90
11132;DHT22;5620;53.570;9.718;2022-09-09T10:00:32;23.20;99.90
11132;DHT22;5620;53.570;9.718;2022-09-09T10:02:59;23.70;99.90
11132;DHT22;5620;53.570;9.718;2022-09-09T10:05:30;24.20;99.90
11132;DHT22;5620;53.570;9.718;2022-09-09T10:08:15;24.50;99.90
11132;DHT22;5620;53.570;9.718;2022-09-09T10:11:12;24.40;99.90
11132;DHT22;5620;53.570;9.718;2022-09-09T10:17:01;23.90;99.90
11132;DHT22;5620;53.570;9.718;2022-09-09T10:19:42;23.90;99.90
11132;DHT22;5620;53.570;9.718;2022-09-09T10:22:44;23.90;99.90
11132;DHT22;5620;53.570;9.718;2022-09-09T10:36:55;24.60;99.90
11132;DHT22;5620;53.570;9.718;2022-09-09T10:42:09;24.60;99.90
11132;DHT22;5620;53.570;9.718;2022-09-09T10:45:02;24.60;99.90
11132;DHT22;5620;53.570;9.718;2022-09-09T10:48:07;24.70;95.10
11132;DHT22;5620;53.570;9.718;2022-09-09T10:50:55;24.80;90.30
11132;DHT22;5620;53.570;9.718;2022-09-09T10:53:53;25.10;87.70
11132;DHT22;5620;53.570;9.718;2022-09-09T10:56:22;25.30;76.60
11132;DHT22;5620;53.570;9.718;2022-09-09T10:59:09;25.40;70.10
11132;DHT22;5620;53.570;9.718;2022-09-09T11:01:51;27.40;70.00
11132;DHT22;5620;53.570;9.718;2022-09-09T11:04:49;30.10;1.00
11132;DHT22;5620;53.570;9.718;2022-09-09T11:07:28;32.20;1.00
11132;DHT22;5620;53.570;9.718;2022-09-09T11:10:04;33.00;1.00
11132;DHT22;5620;53.570;9.718;2022-09-09T11:12:34;33.20;1.00
11132;DHT22;5620;53.570;9.718;2022-09-09T11:15:29;32.60;99.90
11132;DHT22;5620;53.570;9.718;2022-09-09T11:18:01;32.30;99.90
11132;DHT22;5620;53.570;9.718;2022-09-09T11:20:37;31.30;99.90
11132;DHT22;5620;53.570;9.718;2022-09-09T11:23:21;30.30;99.90
11132;DHT22;5620;53.570;9.718;2022-09-09T11:25:58;30.40;99.90
11132;DHT22;5620;53.570;9.718;2022-09-09T11:28:50;30.70;99.90
11132;DHT22;5620;53.570;9.718;2022-09-09T11:40:25;35.10;99.90
11132;DHT22;5620;53.570;9.718;2022-09-09T11:43:16;36.70;99.90
11132;DHT22;5620;53.570;9.718;2022-09-09T11:45:51;37.10;99.90
11132;DHT22;5620;53.570;9.718;2022-09-09T11:48:38;38.00;99.90
11132;DHT22;5620;53.570;9.718;2022-09-09T11:59:30;33.40;99.90
11132;DHT22;5620;53.570;9.718;2022-09-09T12:02:02;33.20;99.90
11132;DHT22;5620;53.570;9.718;2022-09-09T12:12:39;36.50;99.90
11132;DHT22;5620;53.570;9.718;2022-09-09T12:15:17;37.00;99.90
11132;DHT22;5620;53.570;9.718;2022-09-09T12:17:51;37.30;99.90
11132;DHT22;5620;53.570;9.718;2022-09-09T12:26:22;38.70;99.90
11132;DHT22;5620;53.570;9.718;2022-09-09T12:31:44;35.90;99.90
11132;DHT22;5620;53.570;9.718;2022-09-09T12:37:02;35.90;99.90
11132;DHT22;5620;53.570;9.718;2022-09-09T12:39:37;36.70;99.90
11132;DHT22;5620;53.570;9.718;2022-09-09T12:42:04;38.10;99.90
11132;DHT22;5620;53.570;9.718;2022-09-09T12:44:30;37.60;99.90
11132;DHT22;5620;53.570;9.718;2022-09-09T12:47:02;36.80;99.90
11132;DHT22;5620;53.570;9.718;2022-09-09T12:49:38;35.70;99.90
11132;DHT22;5620;53.570;9.718;2022-09-09T12:52:14;34.40;99.90
11132;DHT22;5620;53.570;9.718;2022-09-09T12:54:47;32.60;99.90
11132;DHT22;5620;53.570;9.718;2022-09-09T12:57:15;30.80;99.90
11132;DHT22;5620;53.570;9.718;2022-09-09T12:59:43;29.40;99.90
11132;DHT22;5620;53.570;9.718;2022-09-09T13:02:31;28.20;99.90
11132;DHT22;5620;53.570;9.718;2022-09-09T13:05:13;27.20;99.90
11132;DHT22;5620;53.570;9.718;2022-09-09T13:07:41;26.40;99.90
11132;DHT22;5620;53.570;9.718;2022-09-09T13:10:11;26.00;99.90
11132;DHT22;5620;53.570;9.718;2022-09-09T13:12:41;25.90;99.90
11132;DHT22;5620;53.570;9.718;2022-09-09T13:15:19;25.80;99.90
11132;DHT22;5620;53.570;9.718;2022-09-09T13:17:51;25.60;99.90
11132;DHT22;5620;53.570;9.718;2022-09-09T13:20:19;25.40;99.90
11132;DHT22;5620;53.570;9.718;2022-09-09T13:22:48;25.30;99.90
11132;DHT22;5620;53.570;9.718;2022-09-09T13:25:24;25.20;99.90
11132;DHT22;5620;53.570;9.718;2022-09-09T13:28:19;25.00;99.90
11132;DHT22;5620;53.570;9.718;2022-09-09T13:31:00;24.80;1.00
11132;DHT22;5620;53.570;9.718;2022-09-09T13:33:38;24.50;1.00
11132;DHT22;5620;53.570;9.718;2022-09-09T13:36:09;24.30;1.00
11132;DHT22;5620;53.570;9.718;2022-09-09T13:39:03;24.10;1.00
11132;DHT22;5620;53.570;9.718;2022-09-09T13:41:46;24.10;1.00
11132;DHT22;5620;53.570;9.718;2022-09-09T13:44:28;24.00;1.00
11132;DHT22;5620;53.570;9.718;2022-09-09T13:50:32;23.60;1.00
11132;DHT22;5620;53.570;9.718;2022-09-09T13:52:59;23.50;1.00
11132;DHT22;5620;53.570;9.718;2022-09-09T13:55:31;23.20;1.00
11132;DHT22;5620;53.570;9.718;2022-09-09T13:58:03;23.00;1.00
11132;DHT22;5620;53.570;9.718;2022-09-09T14:00:32;22.90;1.00
11132;DHT22;5620;53.570;9.718;2022-09-09T14:02:59;22.90;1.00
11132;DHT22;5620;53.570;9.718;2022-09-09T14:05:26;23.00;1.00
11132;DHT22;5620;53.570;9.718;2022-09-09T14:07:53;23.00;1.00
11132;DHT22;5620;53.570;9.718;2022-09-09T14:10:20;23.00;1.00
11132;DHT22;5620;53.570;9.718;2022-09-09T14:12:47;23.10;1.00
11132;DHT22;5620;53.570;9.718;2022-09-09T14:15:12;23.10;1.00
11132;DHT22;5620;53.570;9.718;2022-09-09T14:17:39;23.30;1.00
11132;DHT22;5620;53.570;9.718;2022-09-09T14:20:08;23.30;1.00
11132;DHT22;5620;53.570;9.718;2022-09-09T14:22:33;23.30;1.00
11132;DHT22;5620;53.570;9.718;2022-09-09T14:24:59;23.30;1.00
11132;DHT22;5620;53.570;9.718;2022-09-09T14:27:25;23.20;1.00
11132;DHT22;5620;53.570;9.718;2022-09-09T14:29:50;23.20;1.00
11132;DHT22;5620;53.570;9.718;2022-09-09T14:32:17;23.20;1.00
11132;DHT22;5620;53.570;9.718;2022-09-09T14:34:45;23.10;1.00
11132;DHT22;5620;53.570;9.718;2022-09-09T14:37:13;23.00;1.00
11132;DHT22;5620;53.570;9.718;2022-09-09T14:39:38;22.80;1.00
11132;DHT22;5620;53.570;9.718;2022-09-09T14:42:05;22.60;1.00
11132;DHT22;5620;53.570;9.718;2022-09-09T14:44:31;22.50;1.00
11132;DHT22;5620;53.570;9.718;2022-09-09T14:46:57;22.40;1.00
11132;DHT22;5620;53.570;9.718;2022-09-09T14:49:23;22.30;1.00
11132;DHT22;5620;53.570;9.718;2022-09-09T14:51:51;22.30;1.00
11132;DHT22;5620;53.570;9.718;2022-09-09T14:54:16;22.20;1.00
11132;DHT22;5620;53.570;9.718;2022-09-09T14:56:43;22.10;1.00
11132;DHT22;5620;53.570;9.718;2022-09-09T14:59:10;22.10;1.00
11132;DHT22;5620;53.570;9.718;2022-09-09T15:01:37;22.10;1.00
11132;DHT22;5620;53.570;9.718;2022-09-09T15:04:04;22.10;1.00
11132;DHT22;5620;53.570;9.718;2022-09-09T15:06:44;22.20;1.00
11132;DHT22;5620;53.570;9.718;2022-09-09T15:09:10;22.30;1.00
11132;DHT22;5620;53.570;9.718;2022-09-09T15:11:38;22.30;1.00
11132;DHT22;5620;53.570;9.718;2022-09-09T15:14:07;22.30;1.00
11132;DHT22;5620;53.570;9.718;2022-09-09T15:16:36;22.30;1.00
11132;DHT22;5620;53.570;9.718;2022-09-09T15:19:03;22.50;1.00
11132;DHT22;5620;53.570;9.718;2022-09-09T15:21:35;22.60;1.00
11132;DHT22;5620;53.570;9.718;2022-09-09T15:24:04;22.70;1.00
11132;DHT22;5620;53.570;9.718;2022-09-09T15:26:31;22.80;1.00
11132;DHT22;5620;53.570;9.718;2022-09-09T15:29:02;22.90;1.00
11132;DHT22;5620;53.570;9.718;2022-09-09T15:31:38;22.90;1.00
11132;DHT22;5620;53.570;9.718;2022-09-09T15:34:06;23.00;1.00
11132;DHT22;5620;53.570;9.718;2022-09-09T15:36:45;23.00;1.00
11132;DHT22;5620;53.570;9.718;2022-09-09T15:39:14;23.00;1.00
11132;DHT22;5620;53.570;9.718;2022-09-09T15:41:43;23.10;1.00
11132;DHT22;5620;53.570;9.718;2022-09-09T15:44:13;23.40;1.00
11132;DHT22;5620;53.570;9.718;2022-09-09T15:46:44;23.80;1.00
11132;DHT22;5620;53.570;9.718;2022-09-09T15:49:22;24.30;1.00
11132;DHT22;5620;53.570;9.718;2022-09-09T15:51:58;24.70;1.00
11132;DHT22;5620;53.570;9.718;2022-09-09T15:54:25;24.90;1.00
11132;DHT22;5620;53.570;9.718;2022-09-09T15:56:57;25.20;1.00
11132;DHT22;5620;53.570;9.718;2022-09-09T15:59:26;25.90;1.00
11132;DHT22;5620;53.570;9.718;2022-09-09T16:01:53;26.40;1.00
11132;DHT22;5620;53.570;9.718;2022-09-09T16:04:41;26.90;1.00
11132;DHT22;5620;53.570;9.718;2022-09-09T16:07:09;27.60;1.00
11132;DHT22;5620;53.570;9.718;2022-09-09T16:09:36;28.70;1.00
11132;DHT22;5620;53.570;9.718;2022-09-09T16:12:03;30.30;1.00
11132;DHT22;5620;53.570;9.718;2022-09-09T16:14:29;31.20;1.00
11132;DHT22;5620;53.570;9.718;2022-09-09T16:16:58;31.30;99.90
11132;DHT22;5620;53.570;9.718;2022-09-09T16:19:25;30.20;99.90
11132;DHT22;5620;53.570;9.718;2022-09-09T16:21:52;28.80;1.00
11132;DHT22;5620;53.570;9.718;2022-09-09T16:24:19;27.70;1.00
11132;DHT22;5620;53.570;9.718;2022-09-09T16:26:49;26.80;1.00
11132;DHT22;5620;53.570;9.718;2022-09-09T16:29:25;26.00;1.00
11132;DHT22;5620;53.570;9.718;2022-09-09T16:31:52;25.40;1.00
11132;DHT22;5620;53.570;9.718;2022-09-09T16:34:29;24.90;1.00
11132;DHT22;5620;53.570;9.718;2022-09-09T16:36:56;24.40;1.00
11132;DHT22;5620;53.570;9.718;2022-09-09T16:39:23;24.00;1.00
11132;DHT22;5620;53.570;9.718;2022-09-09T16:41:50;23.60;1.00
11132;DHT22;5620;53.570;9.718;2022-09-09T16:44:19;23.20;1.00
11132;DHT22;5620;53.570;9.718;2022-09-09T16:46:47;22.90;1.00
11132;DHT22;5620;53.570;9.718;2022-09-09T16:49:16;22.50;1.00
11132;DHT22;5620;53.570;9.718;2022-09-09T16:51:45;22.20;1.00
11132;DHT22;5620;53.570;9.718;2022-09-09T16:54:14;21.90;1.00
11132;DHT22;5620;53.570;9.718;2022-09-09T16:56:44;21.70;1.00
11132;DHT22;5620;53.570;9.718;2022-09-09T16:59:16;21.50;1.00
11132;DHT22;5620;53.570;9.718;2022-09-09T17:01:45;21.30;1.00
11132;DHT22;5620;53.570;9.718;2022-09-09T17:04:15;21.10;1.00
11132;DHT22;5620;53.570;9.718;2022-09-09T17:06:49;20.80;1.00
11132;DHT22;5620;53.570;9.718;2022-09-09T17:09:20;20.60;1.00
11132;DHT22;5620;53.570;9.718;2022-09-09T17:11:48;20.40;1.00
11132;DHT22;5620;53.570;9.718;2022-09-09T17:14:16;20.30;1.00
11132;DHT22;5620;53.570;9.718;2022-09-09T17:16:44;20.10;1.00
11132;DHT22;5620;53.570;9.718;2022-09-09T17:19:11;19.90;1.00
11132;DHT22;5620;53.570;9.718;2022-09-09T17:21:38;19.70;1.00
11132;DHT22;5620;53.570;9.718;2022-09-09T17:24:06;19.50;1.00
11132;DHT22;5620;53.570;9.718;2022-09-09T17:26:35;19.30;1.00
11132;DHT22;5620;53.570;9.718;2022-09-09T17:29:02;19.00;1.00
11132;DHT22;5620;53.570;9.718;2022-09-09T17:31:34;18.90;1.00
11132;DHT22;5620;53.570;9.718;2022-09-09T17:34:01;18.70;1.00
11132;DHT22;5620;53.570;9.718;2022-09-09T17:36:32;18.50;1.00
11132;DHT22;5620;53.570;9.718;2022-09-09T17:39:01;18.30;1.00
11132;DHT22;5620;53.570;9.718;2022-09-09T17:41:36;18.20;1.00
11132;DHT22;5620;53.570;9.718;2022-09-09T17:44:05;18.00;1.00
11132;DHT22;5620;53.570;9.718;2022-09-09T17:46:36;17.90;22.30
11132;DHT22;5620;53.570;9.718;2022-09-09T17:49:05;17.70;68.50
11132;DHT22;5620;53.570;9.718;2022-09-09T17:51:33;17.60;95.50
11132;DHT22;5620;53.570;9.718;2022-09-09T17:54:03;17.50;99.90
11132;DHT22;5620;53.570;9.718;2022-09-09T17:56:33;17.30;99.90
11132;DHT22;5620;53.570;9.718;2022-09-09T17:59:00;17.20;99.90
11132;DHT22;5620;53.570;9.718;2022-09-09T18:01:32;17.10;99.90
11132;DHT22;5620;53.570;9.718;2022-09-09T18:04:06;17.00;99.90
11132;DHT22;5620;53.570;9.718;2022-09-09T18:06:42;16.90;1.00
11132;DHT22;5620;53.570;9.718;2022-09-09T18:09:12;16.90;1.00
11132;DHT22;5620;53.570;9.718;2022-09-09T18:11:45;16.80;1.00
11132;DHT22;5620;53.570;9.718;2022-09-09T18:14:18;16.70;1.00
11132;DHT22;5620;53.570;9.718;2022-09-09T18:16:47;16.70;2.10
11132;DHT22;5620;53.570;9.718;2022-09-09T18:19:26;16.60;64.70
11132;DHT22;5620;53.570;9.718;2022-09-09T18:21:55;16.60;99.90
11132;DHT22;5620;53.570;9.718;2022-09-09T18:24:21;16.50;99.90
11132;DHT22;5620;53.570;9.718;2022-09-09T18:26:48;16.50;99.90
11132;DHT22;5620;53.570;9.718;2022-09-09T18:29:19;16.50;99.90
11132;DHT22;5620;53.570;9.718;2022-09-09T18:31:47;16.40;99.90
11132;DHT22;5620;53.570;9.718;2022-09-09T18:34:19;16.40;99.90
11132;DHT22;5620;53.570;9.718;2022-09-09T18:36:49;16.40;99.90
11132;DHT22;5620;53.570;9.718;2022-09-09T18:39:16;16.40;1.00